Terminal Aerodrome Forecast
Issued by NWS

Home | Current Version | Previous Version | Text Only | Print | Product List | Glossary On
Versions: 1 2 3 4 5 6 7 8 9 10 11 12 13 14 15 16 17 18 19 20 21 22 23 24 25 26 27 28 29
000
FTUS44 KMAF 192300 RRA
TAFCNM
TAF
KCNM 192341Z 2000/2024 10006KT P6SM SCT020 OVC050
      TEMPO 2000/2004 3SM TSRA BR OVC005CB
     FM200400 12006KT P6SM OVC015
      TEMPO 2004/2008 1SM TSRA BR OVC005CB
     FM200800 15006KT P6SM OVC010
      TEMPO 2008/2012 1SM TSRA BR OVC005CB=

USA.gov is the U.S. government's official web portal to all federal, state and local government web resources and services.